createdAt,value
2023-05-15T00:00:52.370Z,386.00
2023-05-15T00:01:52.399Z,386.00
2023-05-15T00:02:52.481Z,387.00
2023-05-15T00:03:52.469Z,386.00
2023-05-15T00:04:52.421Z,385.00
2023-05-15T00:05:52.446Z,387.00
2023-05-15T00:06:52.433Z,390.00
2023-05-15T00:07:52.450Z,388.00
2023-05-15T00:08:52.457Z,387.00
2023-05-15T00:09:52.474Z,386.00
2023-05-15T00:11:00.665Z,385.00
2023-05-15T00:11:52.526Z,385.00
2023-05-15T00:12:52.502Z,386.00
2023-05-15T00:13:52.512Z,386.00
2023-05-15T00:14:52.519Z,387.00
2023-05-15T00:15:52.596Z,386.00
2023-05-15T00:16:52.528Z,385.00
2023-05-15T00:17:52.726Z,385.00
2023-05-15T00:18:52.569Z,384.00
2023-05-15T00:19:52.563Z,386.00
2023-05-15T00:20:52.575Z,384.00
2023-05-15T00:21:52.596Z,384.00
2023-05-15T00:22:52.623Z,382.00
2023-05-15T00:23:52.614Z,381.00
2023-05-15T00:24:52.637Z,382.00
2023-05-15T00:25:52.657Z,383.00
2023-05-15T00:26:52.644Z,383.00
2023-05-15T00:27:52.680Z,383.00
2023-05-15T00:28:52.675Z,383.00
2023-05-15T00:29:52.682Z,383.00
2023-05-15T00:30:52.704Z,385.00
2023-05-15T00:31:52.745Z,385.00
2023-05-15T00:32:52.735Z,387.00
2023-05-15T00:33:52.739Z,388.00
2023-05-15T00:34:52.747Z,387.00
2023-05-15T00:35:52.753Z,384.00
2023-05-15T00:36:52.774Z,381.00
2023-05-15T00:37:52.784Z,382.00
2023-05-15T00:38:52.800Z,382.00
2023-05-15T00:39:52.812Z,384.00
2023-05-15T00:40:52.823Z,387.00
2023-05-15T00:41:52.828Z,387.00
2023-05-15T00:42:52.848Z,385.00
2023-05-15T00:43:52.878Z,385.00
2023-05-15T00:44:52.854Z,388.00
2023-05-15T00:45:52.870Z,388.00
2023-05-15T00:46:52.993Z,390.00
2023-05-15T00:47:52.954Z,390.00
2023-05-15T00:48:52.905Z,391.00
2023-05-15T00:49:52.939Z,390.00
2023-05-15T00:50:52.930Z,389.00
2023-05-15T00:51:52.945Z,392.00
2023-05-15T00:52:52.947Z,392.00
2023-05-15T00:53:53.049Z,391.00
2023-05-15T00:54:52.973Z,391.00
2023-05-15T00:55:52.984Z,390.00
2023-05-15T00:56:52.995Z,388.00
2023-05-15T00:57:52.997Z,388.00
2023-05-15T00:58:53.007Z,389.00
2023-05-15T00:59:53.054Z,390.00
2023-05-15T01:00:53.103Z,389.00
2023-05-15T01:01:53.123Z,387.00
2023-05-15T01:02:53.125Z,387.00
2023-05-15T01:03:53.072Z,385.00
2023-05-15T01:04:53.099Z,384.00
2023-05-15T01:05:53.106Z,385.00
2023-05-15T01:06:53.107Z,383.00
2023-05-15T01:07:53.129Z,386.00
2023-05-15T01:08:53.118Z,387.00
2023-05-15T01:09:53.139Z,386.00
2023-05-15T01:10:53.149Z,385.00
2023-05-15T01:11:53.165Z,383.00
2023-05-15T01:12:53.201Z,381.00
2023-05-15T01:13:53.205Z,381.00
2023-05-15T01:14:53.213Z,383.00
2023-05-15T01:15:53.253Z,385.00
2023-05-15T01:16:53.241Z,385.00
2023-05-15T01:17:53.302Z,384.00
2023-05-15T01:18:53.384Z,383.00
2023-05-15T01:19:53.379Z,382.00
2023-05-15T01:20:53.284Z,383.00
2023-05-15T01:21:53.294Z,383.00
2023-05-15T01:22:53.308Z,385.00
2023-05-15T01:23:53.317Z,386.00
2023-05-15T01:24:53.327Z,385.00
2023-05-15T01:25:53.339Z,385.00
2023-05-15T01:26:53.359Z,386.00
2023-05-15T01:27:53.364Z,385.00
2023-05-15T01:28:53.371Z,384.00
2023-05-15T01:29:53.390Z,384.00
2023-05-15T01:30:53.395Z,384.00
2023-05-15T01:31:53.458Z,382.00
2023-05-15T01:32:53.459Z,383.00
2023-05-15T01:33:53.430Z,383.00
2023-05-15T01:34:53.441Z,384.00
2023-05-15T01:35:53.457Z,385.00
2023-05-15T01:36:53.460Z,385.00
2023-05-15T01:37:53.482Z,383.00
2023-05-15T01:38:53.476Z,382.00
2023-05-15T01:39:53.678Z,381.00
2023-05-15T01:40:53.506Z,381.00
2023-05-15T01:41:53.515Z,380.00
2023-05-15T01:42:53.532Z,378.00
2023-05-15T01:43:53.556Z,380.00
2023-05-15T01:44:53.564Z,379.00
2023-05-15T01:45:53.607Z,380.00
2023-05-15T01:46:53.835Z,379.00
2023-05-15T01:47:53.678Z,376.00
2023-05-15T01:48:53.608Z,375.00
2023-05-15T01:49:53.616Z,376.00
2023-05-15T01:50:53.634Z,377.00
2023-05-15T01:51:53.638Z,378.00
2023-05-15T01:52:53.662Z,378.00
2023-05-15T01:53:53.659Z,379.00
2023-05-15T01:54:53.676Z,377.00
2023-05-15T01:55:53.682Z,376.00
2023-05-15T01:56:53.683Z,376.00
2023-05-15T01:57:53.679Z,375.00
2023-05-15T01:58:53.686Z,377.00
2023-05-15T01:59:53.693Z,379.00
2023-05-15T02:00:53.713Z,378.00
2023-05-15T02:01:53.806Z,377.00
2023-05-15T02:02:53.759Z,377.00
2023-05-15T02:03:53.872Z,376.00
2023-05-15T02:04:53.753Z,378.00
2023-05-15T02:05:53.768Z,379.00
2023-05-15T02:06:53.778Z,378.00
2023-05-15T02:07:53.777Z,377.00
2023-05-15T02:08:53.794Z,376.00
2023-05-15T02:09:53.799Z,377.00
2023-05-15T02:10:53.803Z,375.00
2023-05-15T02:11:53.811Z,376.00
2023-05-15T02:12:53.826Z,378.00
2023-05-15T02:13:53.838Z,379.00
2023-05-15T02:14:53.847Z,378.00
2023-05-15T02:15:53.932Z,378.00
2023-05-15T02:16:53.873Z,380.00
2023-05-15T02:17:53.919Z,381.00
2023-05-15T02:18:54.010Z,380.00
2023-05-15T02:19:54.052Z,380.00
2023-05-15T02:20:53.923Z,379.00
2023-05-15T02:21:53.938Z,377.00
2023-05-15T02:22:53.949Z,375.00
2023-05-15T02:23:53.957Z,376.00
2023-05-15T02:24:53.960Z,378.00
2023-05-15T02:25:53.976Z,379.00
2023-05-15T02:26:54.070Z,380.00
2023-05-15T02:27:54.014Z,381.00
2023-05-15T02:28:54.038Z,381.00
2023-05-15T02:29:54.060Z,380.00
2023-05-15T02:30:54.080Z,380.00
2023-05-15T02:31:54.146Z,379.00
2023-05-15T02:32:54.170Z,379.00
2023-05-15T02:33:54.151Z,381.00
2023-05-15T02:34:54.166Z,383.00
2023-05-15T02:35:54.220Z,382.00
2023-05-15T02:36:54.222Z,381.00
2023-05-15T02:37:54.246Z,382.00
2023-05-15T02:38:54.259Z,382.00
2023-05-15T02:39:54.284Z,382.00
2023-05-15T02:40:54.305Z,385.00
2023-05-15T02:41:54.325Z,386.00
2023-05-15T02:42:54.353Z,386.00
2023-05-15T02:43:54.375Z,385.00
2023-05-15T02:44:54.407Z,386.00
2023-05-15T02:45:54.433Z,385.00
2023-05-15T02:46:54.550Z,383.00
2023-05-15T02:47:54.518Z,383.00
2023-05-15T02:48:54.486Z,383.00
2023-05-15T02:49:54.492Z,383.00
2023-05-15T02:50:54.514Z,381.00
2023-05-15T02:51:54.565Z,381.00
2023-05-15T02:52:54.548Z,382.00
2023-05-15T02:53:54.564Z,383.00
2023-05-15T02:54:54.588Z,382.00
2023-05-15T02:55:54.609Z,382.00
2023-05-15T02:56:54.625Z,382.00
2023-05-15T02:57:54.641Z,383.00
2023-05-15T02:58:54.657Z,382.00
2023-05-15T02:59:54.679Z,381.00
2023-05-15T03:00:54.769Z,377.00
2023-05-15T03:01:54.782Z,378.00
2023-05-15T03:02:54.759Z,379.00
2023-05-15T03:03:54.778Z,380.00
2023-05-15T03:04:54.775Z,379.00
2023-05-15T03:05:54.787Z,379.00
2023-05-15T03:06:54.810Z,382.00
2023-05-15T03:07:54.851Z,381.00
2023-05-15T03:08:54.841Z,379.00
2023-05-15T03:09:54.890Z,379.00
2023-05-15T03:10:54.946Z,377.00
2023-05-15T03:11:54.909Z,376.00
2023-05-15T03:12:54.924Z,379.00
2023-05-15T03:13:54.946Z,382.00
2023-05-15T03:14:54.977Z,380.00
2023-05-15T03:15:54.992Z,379.00
2023-05-15T03:16:55.072Z,377.00
2023-05-15T03:17:55.088Z,377.00
2023-05-15T03:18:55.096Z,375.00
2023-05-15T03:19:55.096Z,376.00
2023-05-15T03:20:55.127Z,376.00
2023-05-15T03:21:55.148Z,375.00
2023-05-15T03:22:55.178Z,376.00
2023-05-15T03:23:55.226Z,376.00
2023-05-15T03:24:55.224Z,374.00
2023-05-15T03:25:55.255Z,374.00
2023-05-15T03:26:55.269Z,377.00
2023-05-15T03:27:55.296Z,376.00
2023-05-15T03:28:55.324Z,376.00
2023-05-15T03:29:55.342Z,379.00
2023-05-15T03:30:55.370Z,380.00
2023-05-15T03:31:55.452Z,379.00
2023-05-15T03:32:55.456Z,380.00
2023-05-15T03:33:55.448Z,380.00
2023-05-15T03:34:55.495Z,381.00
2023-05-15T03:35:55.512Z,379.00
2023-05-15T03:36:55.538Z,377.00
2023-05-15T03:37:55.564Z,377.00
2023-05-15T03:38:55.587Z,376.00
2023-05-15T03:39:55.659Z,377.00
2023-05-15T03:40:55.656Z,378.00
2023-05-15T03:41:55.689Z,377.00
2023-05-15T03:42:55.689Z,378.00
2023-05-15T03:43:55.710Z,380.00
2023-05-15T03:44:55.749Z,379.00
2023-05-15T03:45:55.770Z,378.00
2023-05-15T03:46:55.893Z,377.00
2023-05-15T03:47:55.850Z,376.00
2023-05-15T03:48:55.838Z,375.00
2023-05-15T03:49:55.864Z,376.00
2023-05-15T03:50:56.273Z,379.00
2023-05-15T03:51:55.919Z,381.00
2023-05-15T03:52:55.949Z,381.00
2023-05-15T03:53:55.966Z,382.00
2023-05-15T03:54:55.998Z,382.00
2023-05-15T03:55:56.091Z,382.00
2023-05-15T03:56:56.048Z,383.00
2023-05-15T03:57:56.095Z,382.00
2023-05-15T03:58:56.107Z,383.00
2023-05-15T03:59:56.146Z,380.00
2023-05-15T04:00:56.177Z,380.00
2023-05-15T04:02:04.969Z,380.00
2023-05-15T04:02:56.365Z,381.00
2023-05-15T04:03:56.227Z,382.00
2023-05-15T04:04:56.275Z,380.00
2023-05-15T04:05:56.311Z,377.00
2023-05-15T04:06:56.248Z,377.00
2023-05-15T04:07:56.262Z,377.00
2023-05-15T04:08:56.269Z,378.00
2023-05-15T04:09:56.285Z,377.00
2023-05-15T04:10:56.296Z,378.00
2023-05-15T04:11:56.337Z,376.00
2023-05-15T04:12:56.318Z,375.00
2023-05-15T04:13:56.341Z,376.00
2023-05-15T04:14:56.360Z,378.00
2023-05-15T04:15:56.441Z,381.00
2023-05-15T04:16:56.379Z,382.00
2023-05-15T04:17:56.451Z,380.00
2023-05-15T04:18:56.448Z,381.00
2023-05-15T04:19:56.433Z,383.00
2023-05-15T04:20:56.445Z,383.00
2023-05-15T04:21:56.455Z,384.00
2023-05-15T04:22:56.472Z,386.00
2023-05-15T04:23:56.475Z,385.00
2023-05-15T04:24:56.492Z,385.00
2023-05-15T04:25:56.495Z,385.00
2023-05-15T04:26:56.557Z,383.00
2023-05-15T04:27:56.541Z,382.00
2023-05-15T04:29:56.543Z,380.00
2023-05-15T04:30:56.564Z,381.00
2023-05-15T04:31:56.604Z,381.00
2023-05-15T04:32:56.662Z,381.00
2023-05-15T04:33:56.582Z,384.00
2023-05-15T04:34:56.589Z,382.00
2023-05-15T04:35:56.601Z,380.00
2023-05-15T04:36:56.612Z,380.00
2023-05-15T04:37:56.621Z,382.00
2023-05-15T04:38:56.626Z,382.00
2023-05-15T04:39:56.633Z,384.00
2023-05-15T04:40:56.650Z,385.00
2023-05-15T04:41:56.655Z,385.00
2023-05-15T04:42:56.653Z,386.00
2023-05-15T04:43:56.702Z,384.00
2023-05-15T04:44:56.678Z,385.00
2023-05-15T04:45:56.720Z,385.00
2023-05-15T04:46:56.698Z,383.00
2023-05-15T04:47:56.723Z,383.00
2023-05-15T04:48:56.719Z,382.00
2023-05-15T04:49:56.733Z,382.00
2023-05-15T04:50:56.742Z,383.00
2023-05-15T04:51:56.753Z,382.00
2023-05-15T04:52:56.760Z,379.00
2023-05-15T04:53:56.765Z,378.00
2023-05-15T04:54:56.776Z,378.00
2023-05-15T04:55:56.787Z,379.00
2023-05-15T04:56:56.829Z,380.00
2023-05-15T04:57:56.815Z,378.00
2023-05-15T04:58:56.828Z,378.00
2023-05-15T04:59:56.948Z,378.00
2023-05-15T05:00:56.860Z,377.00
2023-05-15T05:01:56.940Z,378.00
2023-05-15T05:02:56.944Z,380.00
2023-05-15T05:03:56.921Z,383.00
2023-05-15T05:04:56.919Z,385.00
2023-05-15T05:05:56.929Z,385.00
2023-05-15T05:06:56.960Z,385.00
2023-05-15T05:07:56.964Z,386.00
2023-05-15T05:08:56.974Z,384.00
2023-05-15T05:09:56.994Z,383.00
2023-05-15T05:10:57.014Z,382.00
2023-05-15T05:11:57.022Z,381.00
2023-05-15T05:12:57.043Z,381.00
2023-05-15T05:13:57.058Z,381.00
2023-05-15T05:14:57.074Z,382.00
2023-05-15T05:15:57.164Z,381.00
2023-05-15T05:16:57.094Z,380.00
2023-05-15T05:17:57.161Z,380.00
2023-05-15T05:18:57.147Z,379.00
2023-05-15T05:19:57.133Z,378.00
2023-05-15T05:20:57.158Z,378.00
2023-05-15T05:21:57.253Z,379.00
2023-05-15T05:22:57.180Z,379.00
2023-05-15T05:23:57.201Z,382.00
2023-05-15T05:24:57.227Z,385.00
2023-05-15T05:25:57.211Z,386.00
2023-05-15T05:26:58.274Z,389.00
2023-05-15T05:27:57.246Z,393.00
2023-05-15T05:28:57.758Z,397.00
2023-05-15T05:29:57.255Z,401.00
2023-05-15T05:30:57.275Z,401.00
2023-05-15T05:31:58.062Z,403.00
2023-05-15T05:32:57.321Z,405.00
2023-05-15T05:33:57.405Z,408.00
2023-05-15T05:34:57.321Z,408.00
2023-05-15T05:35:57.330Z,406.00
2023-05-15T05:36:57.760Z,404.00
2023-05-15T05:37:57.352Z,404.00
2023-05-15T05:38:57.766Z,405.00
2023-05-15T05:39:57.392Z,406.00
2023-05-15T05:40:57.393Z,405.00
2023-05-15T05:41:57.785Z,408.00
2023-05-15T05:42:57.414Z,410.00
2023-05-15T05:43:57.425Z,413.00
2023-05-15T05:44:57.426Z,416.00
2023-05-15T05:45:58.433Z,418.00
2023-05-15T05:46:57.815Z,424.00
2023-05-15T05:47:57.557Z,432.00
2023-05-15T05:48:57.570Z,435.00
2023-05-15T05:49:57.627Z,438.00
2023-05-15T05:50:57.603Z,440.00
2023-05-15T05:51:57.768Z,442.00
2023-05-15T05:52:57.696Z,442.00
2023-05-15T05:53:58.718Z,445.00
2023-05-15T05:54:57.765Z,456.00
2023-05-15T05:55:57.804Z,470.00
2023-05-15T05:56:58.256Z,481.00
2023-05-15T05:57:58.267Z,489.00
2023-05-15T05:59:01.127Z,501.00
2023-05-15T06:02:02.226Z,525.00
2023-05-15T06:03:14.025Z,527.00
2023-05-15T06:04:14.341Z,528.00
2023-05-15T06:04:57.964Z,529.00
2023-05-15T06:07:05.397Z,527.00
2023-05-15T06:08:01.216Z,525.00
2023-05-15T06:08:58.024Z,526.00
2023-05-15T06:09:58.050Z,524.00
2023-05-15T06:10:58.233Z,522.00
2023-05-15T06:12:06.245Z,519.00
2023-05-15T06:13:01.271Z,519.00
2023-05-15T06:13:58.125Z,521.00
2023-05-15T06:14:58.154Z,519.00
2023-05-15T06:15:58.113Z,520.00
2023-05-15T06:16:58.346Z,520.00
2023-05-15T06:17:58.163Z,516.00
2023-05-15T06:18:58.239Z,513.00
2023-05-15T06:19:58.178Z,512.00
2023-05-15T06:20:58.177Z,510.00
2023-05-15T06:21:58.270Z,509.00
2023-05-15T06:22:59.272Z,508.00
2023-05-15T06:23:58.216Z,509.00
2023-05-15T06:24:58.233Z,507.00
2023-05-15T06:25:58.258Z,506.00
2023-05-15T06:26:58.772Z,505.00
2023-05-15T06:28:30.219Z,506.00
2023-05-15T06:28:58.296Z,507.00
2023-05-15T06:29:58.308Z,506.00
2023-05-15T06:30:58.376Z,506.00
2023-05-15T06:31:58.349Z,507.00
2023-05-15T06:32:58.805Z,505.00
2023-05-15T06:33:58.374Z,502.00
2023-05-15T06:34:58.611Z,500.00
2023-05-15T06:35:58.420Z,500.00
2023-05-15T06:36:58.787Z,501.00
2023-05-15T06:37:58.799Z,498.00
2023-05-15T06:38:58.458Z,497.00
2023-05-15T06:39:58.470Z,498.00
2023-05-15T06:40:58.778Z,495.00
2023-05-15T06:42:06.178Z,494.00
2023-05-15T06:42:58.514Z,495.00
2023-05-15T06:43:58.820Z,496.00
2023-05-15T06:44:58.612Z,496.00
2023-05-15T06:45:58.578Z,496.00
2023-05-15T06:46:58.811Z,496.00
2023-05-15T06:48:01.843Z,493.00
2023-05-15T06:48:58.600Z,490.00
2023-05-15T06:50:14.787Z,487.00
2023-05-15T06:50:58.668Z,488.00
2023-05-15T06:51:58.786Z,492.00
2023-05-15T06:53:01.856Z,494.00
2023-05-15T06:53:58.802Z,497.00
2023-05-15T06:54:58.674Z,500.00
2023-05-15T06:55:58.697Z,504.00
2023-05-15T06:56:58.791Z,510.00
2023-05-15T06:57:59.095Z,513.00
2023-05-15T06:58:58.748Z,511.00
2023-05-15T06:59:58.756Z,512.00
2023-05-15T07:00:59.468Z,513.00
2023-05-15T07:01:58.845Z,515.00
2023-05-15T07:02:58.841Z,515.00
2023-05-15T07:03:59.201Z,516.00
2023-05-15T07:04:58.867Z,514.00
2023-05-15T07:05:59.351Z,514.00
2023-05-15T07:06:58.842Z,515.00
2023-05-15T07:07:58.870Z,512.00
2023-05-15T07:08:59.080Z,511.00
2023-05-15T07:09:58.904Z,511.00
2023-05-15T07:10:59.296Z,513.00
2023-05-15T07:11:59.755Z,511.00
2023-05-15T07:13:00.039Z,511.00
2023-05-15T07:13:59.088Z,510.00
2023-05-15T07:14:59.129Z,512.00
2023-05-15T07:15:59.292Z,508.00
2023-05-15T07:16:59.230Z,508.00
2023-05-15T07:17:59.313Z,505.00
2023-05-15T07:18:59.321Z,504.00
2023-05-15T07:19:59.339Z,503.00
2023-05-15T07:20:59.796Z,503.00
2023-05-15T07:22:03.480Z,503.00
2023-05-15T07:22:59.794Z,504.00
2023-05-15T07:23:59.454Z,504.00
2023-05-15T07:24:59.462Z,504.00
2023-05-15T07:25:59.473Z,506.00
2023-05-15T07:26:59.549Z,511.00
2023-05-15T07:27:59.994Z,509.00
2023-05-15T07:28:59.807Z,510.00
2023-05-15T07:29:59.569Z,508.00
2023-05-15T07:31:04.144Z,506.00
2023-05-15T07:32:00.140Z,508.00
2023-05-15T07:32:59.767Z,507.00
2023-05-15T07:33:59.780Z,511.00
2023-05-15T07:35:07.233Z,512.00
2023-05-15T07:36:01.372Z,509.00
2023-05-15T07:36:59.885Z,507.00
2023-05-15T07:38:00.072Z,509.00
2023-05-15T07:38:59.969Z,518.00
2023-05-15T07:40:00.071Z,555.00
2023-05-15T07:41:03.261Z,579.00
2023-05-15T07:42:00.338Z,594.00
2023-05-15T07:43:00.312Z,645.00
2023-05-15T07:44:00.484Z,649.00
2023-05-15T07:45:00.127Z,655.00
2023-05-15T07:46:03.392Z,665.00
2023-05-15T07:47:00.150Z,675.00
2023-05-15T07:48:00.388Z,684.00
2023-05-15T07:49:00.193Z,690.00
2023-05-15T07:50:00.177Z,696.00
2023-05-15T07:51:00.125Z,703.00
2023-05-15T07:52:00.153Z,710.00
2023-05-15T07:54:00.328Z,717.00
2023-05-15T07:55:01.178Z,726.00
2023-05-15T07:56:00.164Z,787.00
2023-05-15T07:57:00.306Z,793.00
2023-05-15T07:58:00.314Z,796.00
2023-05-15T07:59:03.462Z,795.00
2023-05-15T08:00:00.223Z,787.00
2023-05-15T08:01:03.443Z,775.00
2023-05-15T08:02:01.321Z,772.00
2023-05-15T08:03:00.537Z,769.00
2023-05-15T08:04:00.445Z,769.00
2023-05-15T08:05:00.239Z,759.00
2023-05-15T08:06:00.324Z,741.00
2023-05-15T08:07:00.285Z,732.00
2023-05-15T08:08:00.338Z,737.00
2023-05-15T08:09:00.297Z,743.00
2023-05-15T08:10:00.328Z,743.00
2023-05-15T08:11:07.716Z,736.00
2023-05-15T08:12:00.330Z,682.00
2023-05-15T08:13:01.242Z,692.00
2023-05-15T08:14:00.391Z,696.00
2023-05-15T08:15:00.377Z,692.00
2023-05-15T08:16:00.430Z,692.00
2023-05-15T08:17:00.410Z,702.00
2023-05-15T08:18:01.338Z,716.00
2023-05-15T08:19:00.444Z,719.00
2023-05-15T08:20:01.429Z,723.00
2023-05-15T08:21:00.947Z,724.00
2023-05-15T08:22:00.485Z,725.00
2023-05-15T08:23:00.506Z,676.00
2023-05-15T08:24:00.859Z,695.00
2023-05-15T08:25:01.533Z,698.00
2023-05-15T08:26:00.614Z,703.00
2023-05-15T08:27:00.560Z,706.00
2023-05-15T08:28:00.813Z,708.00
2023-05-15T08:29:00.729Z,708.00
2023-05-15T08:30:00.846Z,708.00
2023-05-15T08:31:00.642Z,705.00
2023-05-15T08:32:00.640Z,699.00
2023-05-15T08:33:00.889Z,696.00
2023-05-15T08:34:00.680Z,708.00
2023-05-15T08:35:00.834Z,713.00
2023-05-15T08:36:00.717Z,719.00
2023-05-15T08:37:00.724Z,728.00
2023-05-15T08:38:00.702Z,734.00
2023-05-15T08:39:00.899Z,734.00
2023-05-15T08:40:00.819Z,733.00
2023-05-15T08:41:00.735Z,737.00
2023-05-15T08:42:00.784Z,739.00
2023-05-15T08:43:00.762Z,739.00
2023-05-15T08:44:00.778Z,738.00
2023-05-15T08:45:00.827Z,737.00
2023-05-15T08:46:00.805Z,732.00
2023-05-15T08:48:04.050Z,752.00
2023-05-15T08:49:00.901Z,747.00
2023-05-15T08:50:01.029Z,760.00
2023-05-15T08:51:00.849Z,785.00
2023-05-15T08:52:00.876Z,801.00
2023-05-15T08:53:01.338Z,813.00
2023-05-15T08:54:00.867Z,818.00
2023-05-15T08:55:00.871Z,830.00
2023-05-15T08:56:00.878Z,853.00
2023-05-15T08:57:00.904Z,851.00
2023-05-15T08:58:01.374Z,860.00
2023-05-15T08:59:32.709Z,868.00
2023-05-15T09:00:00.901Z,874.00
2023-05-15T09:01:00.899Z,873.00
2023-05-15T09:02:01.202Z,877.00
2023-05-15T09:03:01.474Z,881.00
2023-05-15T09:04:00.985Z,880.00
2023-05-15T09:05:01.334Z,885.00
2023-05-15T09:06:00.965Z,888.00
2023-05-15T09:07:00.908Z,893.00
2023-05-15T09:08:00.923Z,887.00
2023-05-15T09:09:16.540Z,889.00
2023-05-15T09:10:01.336Z,890.00
2023-05-15T09:11:00.915Z,890.00
2023-05-15T09:12:00.922Z,897.00
2023-05-15T09:13:00.917Z,893.00
2023-05-15T09:14:00.967Z,888.00
2023-05-15T09:15:01.346Z,879.00
2023-05-15T09:16:00.928Z,876.00
2023-05-15T09:17:01.012Z,866.00
2023-05-15T09:18:00.976Z,873.00
2023-05-15T09:19:01.072Z,876.00
2023-05-15T09:20:00.919Z,881.00
2023-05-15T09:21:00.929Z,881.00
2023-05-15T09:22:00.920Z,883.00
2023-05-15T09:23:01.359Z,883.00
2023-05-15T09:24:00.913Z,881.00
2023-05-15T09:25:01.341Z,876.00
2023-05-15T09:26:01.401Z,879.00
2023-05-15T09:27:00.904Z,885.00
2023-05-15T09:28:00.897Z,886.00
2023-05-15T09:29:00.898Z,882.00
2023-05-15T09:30:01.095Z,876.00
2023-05-15T09:31:01.346Z,868.00
2023-05-15T09:32:02.141Z,856.00
2023-05-15T09:33:01.123Z,865.00
2023-05-15T09:34:01.368Z,879.00
2023-05-15T09:35:01.180Z,883.00
2023-05-15T09:37:02.229Z,903.00
2023-05-15T09:38:01.348Z,895.00
2023-05-15T09:39:01.225Z,832.00
2023-05-15T09:40:01.275Z,843.00
2023-05-15T09:41:01.241Z,834.00
2023-05-15T09:42:01.246Z,831.00
2023-05-15T09:43:01.753Z,831.00
2023-05-15T09:44:01.264Z,813.00
2023-05-15T09:45:01.255Z,787.00
2023-05-15T09:46:01.527Z,750.00
2023-05-15T09:47:01.319Z,744.00
2023-05-15T09:48:01.540Z,755.00
2023-05-15T09:49:01.271Z,787.00
2023-05-15T09:50:01.312Z,812.00
2023-05-15T09:51:01.386Z,822.00
2023-05-15T09:52:01.416Z,836.00
2023-05-15T09:53:01.512Z,856.00
2023-05-15T09:54:01.507Z,858.00
2023-05-15T09:55:01.629Z,859.00
2023-05-15T09:56:01.851Z,862.00
2023-05-15T09:57:01.630Z,863.00
2023-05-15T09:58:01.857Z,867.00
2023-05-15T09:59:01.700Z,868.00
2023-05-15T10:00:01.723Z,868.00
2023-05-15T10:01:01.750Z,859.00
2023-05-15T10:02:01.954Z,859.00
2023-05-15T10:03:01.919Z,869.00
2023-05-15T10:04:02.841Z,874.00
2023-05-15T10:05:02.154Z,875.00
2023-05-15T10:06:02.025Z,866.00
2023-05-15T10:07:01.916Z,862.00
2023-05-15T10:08:05.140Z,863.00
2023-05-15T10:09:01.951Z,869.00
2023-05-15T10:10:01.980Z,874.00
2023-05-15T10:11:02.381Z,875.00
2023-05-15T10:12:01.934Z,872.00
2023-05-15T10:13:02.373Z,868.00
2023-05-15T10:14:01.930Z,867.00
2023-05-15T10:15:01.960Z,870.00
2023-05-15T10:16:01.980Z,873.00
2023-05-15T10:17:01.913Z,875.00
2023-05-15T10:18:02.476Z,877.00
2023-05-15T10:19:04.811Z,872.00
2023-05-15T10:20:01.904Z,870.00
2023-05-15T10:21:09.282Z,872.00
2023-05-15T10:22:01.871Z,863.00
2023-05-15T10:23:01.864Z,867.00
2023-05-15T10:24:01.880Z,869.00
2023-05-15T10:25:01.865Z,870.00
2023-05-15T10:26:01.834Z,880.00
2023-05-15T10:27:01.831Z,883.00
2023-05-15T10:28:01.826Z,882.00
2023-05-15T10:29:01.878Z,879.00
2023-05-15T10:30:01.819Z,873.00
2023-05-15T10:31:01.939Z,884.00
2023-05-15T10:32:01.799Z,892.00
2023-05-15T10:33:01.856Z,899.00
2023-05-15T10:34:01.825Z,904.00
2023-05-15T10:35:01.791Z,912.00
2023-05-15T10:36:01.779Z,934.00
2023-05-15T10:37:01.786Z,955.00
2023-05-15T10:38:01.764Z,954.00
2023-05-15T10:39:01.761Z,928.00
2023-05-15T10:40:01.753Z,937.00
2023-05-15T10:41:15.928Z,930.00
2023-05-15T10:42:01.869Z,929.00
2023-05-15T10:43:01.766Z,930.00
2023-05-15T10:44:01.870Z,933.00
2023-05-15T10:45:01.758Z,937.00
2023-05-15T10:46:01.744Z,934.00
2023-05-15T10:47:01.832Z,924.00
2023-05-15T10:48:01.944Z,892.00
2023-05-15T10:49:01.939Z,865.00
2023-05-15T10:50:01.860Z,871.00
2023-05-15T10:51:04.945Z,875.00
2023-05-15T10:52:01.722Z,875.00
2023-05-15T10:53:01.757Z,886.00
2023-05-15T10:54:03.454Z,889.00
2023-05-15T10:55:01.931Z,886.00
2023-05-15T10:56:02.405Z,872.00
2023-05-15T10:57:02.963Z,871.00
2023-05-15T10:58:01.981Z,872.00
2023-05-15T10:59:01.992Z,869.00
2023-05-15T11:00:02.077Z,867.00
2023-05-15T11:01:02.393Z,868.00
2023-05-15T11:02:02.042Z,868.00
2023-05-15T11:03:02.066Z,868.00
2023-05-15T11:04:02.068Z,865.00
2023-05-15T11:05:02.110Z,872.00
2023-05-15T11:06:02.123Z,877.00
2023-05-15T11:07:02.098Z,879.00
2023-05-15T11:08:02.118Z,876.00
2023-05-15T11:09:02.416Z,873.00
2023-05-15T11:10:03.591Z,868.00
2023-05-15T11:11:02.131Z,862.00
2023-05-15T11:12:02.129Z,841.00
2023-05-15T11:13:02.127Z,848.00
2023-05-15T11:14:02.394Z,919.00
2023-05-15T11:15:02.120Z,906.00
2023-05-15T11:16:02.102Z,906.00
2023-05-15T11:17:02.168Z,910.00
2023-05-15T11:18:02.147Z,866.00
2023-05-15T11:19:02.446Z,840.00
2023-05-15T11:20:02.124Z,846.00
2023-05-15T11:21:02.479Z,841.00
2023-05-15T11:22:02.100Z,837.00
2023-05-15T11:23:02.057Z,829.00
2023-05-15T11:24:02.052Z,821.00
2023-05-15T11:25:02.258Z,806.00
2023-05-15T11:26:02.455Z,802.00
2023-05-15T11:27:02.261Z,801.00
2023-05-15T11:28:02.888Z,802.00
2023-05-15T11:29:09.802Z,801.00
2023-05-15T11:30:02.034Z,789.00
2023-05-15T11:31:02.038Z,775.00
2023-05-15T11:32:02.015Z,773.00
2023-05-15T11:33:02.118Z,769.00
2023-05-15T11:34:02.538Z,773.00
2023-05-15T11:35:02.133Z,769.00
2023-05-15T11:36:02.015Z,744.00
2023-05-15T11:37:02.394Z,713.00
2023-05-15T11:38:02.020Z,706.00
2023-05-15T11:39:02.390Z,669.00
2023-05-15T11:40:02.032Z,667.00
2023-05-15T11:41:02.005Z,667.00
2023-05-15T11:42:02.389Z,655.00
2023-05-15T11:43:02.033Z,645.00
2023-05-15T11:44:02.396Z,644.00
2023-05-15T11:45:02.072Z,675.00
2023-05-15T11:46:02.068Z,681.00
2023-05-15T11:47:02.146Z,680.00
2023-05-15T11:48:02.528Z,678.00
2023-05-15T11:49:02.386Z,685.00
2023-05-15T11:50:01.997Z,697.00
2023-05-15T11:51:01.999Z,703.00
2023-05-15T11:52:01.971Z,706.00
2023-05-15T11:53:01.971Z,711.00
2023-05-15T11:54:02.445Z,712.00
2023-05-15T11:55:01.940Z,707.00
2023-05-15T11:56:01.925Z,705.00
2023-05-15T11:57:01.931Z,705.00
2023-05-15T11:58:01.920Z,703.00
2023-05-15T11:59:01.915Z,702.00
2023-05-15T12:00:01.911Z,700.00
2023-05-15T12:01:01.903Z,693.00
2023-05-15T12:02:01.919Z,696.00
2023-05-15T12:03:02.058Z,702.00
2023-05-15T12:04:02.700Z,710.00
2023-05-15T12:05:02.054Z,718.00
2023-05-15T12:06:01.999Z,724.00
2023-05-15T12:07:03.101Z,728.00
2023-05-15T12:08:02.129Z,732.00
2023-05-15T12:09:02.403Z,747.00
2023-05-15T12:10:02.208Z,760.00
2023-05-15T12:11:02.164Z,759.00
2023-05-15T12:12:02.153Z,763.00
2023-05-15T12:13:03.173Z,757.00
2023-05-15T12:14:02.437Z,749.00
2023-05-15T12:15:02.246Z,754.00
2023-05-15T12:16:02.435Z,800.00
2023-05-15T12:17:02.388Z,807.00
2023-05-15T12:18:02.406Z,812.00
2023-05-15T12:19:02.485Z,816.00
2023-05-15T12:20:02.392Z,823.00
2023-05-15T12:21:02.419Z,826.00
2023-05-15T12:22:02.429Z,823.00
2023-05-15T12:23:02.430Z,823.00
2023-05-15T12:24:08.196Z,827.00
2023-05-15T12:25:02.912Z,825.00
2023-05-15T12:26:02.466Z,827.00
2023-05-15T12:27:02.430Z,828.00
2023-05-15T12:28:02.441Z,828.00
2023-05-15T12:29:02.918Z,834.00
2023-05-15T12:30:02.409Z,836.00
2023-05-15T12:31:02.431Z,836.00
2023-05-15T12:32:02.464Z,848.00
2023-05-15T12:33:02.464Z,852.00
2023-05-15T12:34:02.404Z,852.00
2023-05-15T12:35:02.470Z,853.00
2023-05-15T12:36:02.417Z,854.00